createdAt,value
2019-04-26T00:00:50.496Z,20.50
2019-04-26T00:03:42.686Z,20.50
2019-04-26T00:06:30.539Z,20.40
2019-04-26T00:09:25.093Z,20.40
2019-04-26T00:12:34.361Z,20.40
2019-04-26T00:15:40.804Z,20.40
2019-04-26T00:18:27.652Z,20.40
2019-04-26T00:21:14.281Z,20.40
2019-04-26T00:24:01.035Z,20.30
2019-04-26T00:26:47.770Z,20.30
2019-04-26T00:29:34.635Z,20.20
2019-04-26T00:32:21.490Z,20.20
2019-04-26T00:35:07.876Z,20.20
2019-04-26T00:37:54.458Z,20.20
2019-04-26T00:40:40.887Z,20.10
2019-04-26T00:43:27.935Z,20.10
2019-04-26T00:46:16.726Z,20.00
2019-04-26T00:49:06.339Z,20.00
2019-04-26T00:51:52.749Z,20.00
2019-04-26T00:54:40.089Z,19.90
2019-04-26T00:57:27.711Z,19.90
2019-04-26T01:00:17.717Z,19.80
2019-04-26T01:03:04.561Z,19.80
2019-04-26T01:05:59.868Z,19.70
2019-04-26T01:08:38.981Z,19.70
2019-04-26T01:11:26.041Z,19.70
2019-04-26T01:14:12.427Z,19.60
2019-04-26T01:16:59.073Z,19.50
2019-04-26T01:19:46.764Z,19.50
2019-04-26T01:22:39.618Z,19.40
2019-04-26T01:25:51.510Z,19.40
2019-04-26T01:28:45.317Z,19.40
2019-04-26T01:31:39.008Z,19.30
2019-04-26T01:34:26.153Z,19.30
2019-04-26T01:37:13.024Z,19.20
2019-04-26T01:40:05.553Z,19.20
2019-04-26T01:43:06.230Z,19.20
2019-04-26T01:46:12.783Z,19.10
2019-04-26T01:49:04.739Z,19.10
2019-04-26T01:52:01.711Z,19.10
2019-04-26T01:54:48.556Z,19.00
2019-04-26T01:57:36.043Z,19.00
2019-04-26T02:00:32.970Z,18.90
2019-04-26T02:03:23.904Z,18.90
2019-04-26T02:06:10.672Z,18.80
2019-04-26T02:08:57.220Z,18.80
2019-04-26T02:11:44.121Z,18.80
2019-04-26T02:14:31.137Z,18.70
2019-04-26T02:17:17.702Z,18.70
2019-04-26T02:20:05.085Z,18.70
2019-04-26T02:23:00.874Z,18.60
2019-04-26T02:25:47.504Z,18.50
2019-04-26T02:28:34.554Z,18.50
2019-04-26T02:31:20.962Z,18.50
2019-04-26T02:34:07.919Z,18.50
2019-04-26T02:36:59.207Z,18.40
2019-04-26T02:39:45.736Z,18.40
2019-04-26T02:42:39.767Z,18.40
2019-04-26T02:48:55.785Z,18.30
2019-04-26T02:51:56.848Z,18.20
2019-04-26T02:54:58.360Z,18.20
2019-04-26T02:57:52.558Z,18.20
2019-04-26T03:00:40.690Z,18.10
2019-04-26T03:03:29.831Z,18.10
2019-04-26T03:06:16.636Z,18.00
2019-04-26T03:09:06.385Z,18.00
2019-04-26T03:12:02.269Z,18.00
2019-04-26T03:15:13.145Z,17.90
2019-04-26T03:18:19.384Z,17.90
2019-04-26T03:21:17.602Z,17.80
2019-04-26T03:24:32.272Z,17.80
2019-04-26T03:27:45.022Z,17.70
2019-04-26T03:30:52.378Z,17.70
2019-04-26T03:34:18.185Z,17.60
2019-04-26T03:38:02.088Z,17.60
2019-04-26T03:41:22.756Z,17.50
2019-04-26T03:44:37.167Z,17.40
2019-04-26T03:47:30.053Z,17.40
2019-04-26T03:50:31.072Z,17.30
2019-04-26T03:53:45.861Z,17.20
2019-04-26T03:57:16.520Z,17.20
2019-04-26T04:00:40.474Z,17.10
2019-04-26T04:03:48.316Z,17.10
2019-04-26T04:06:52.719Z,17.00
2019-04-26T04:09:26.201Z,17.00
2019-04-26T04:12:47.765Z,16.90
2019-04-26T04:15:46.223Z,16.90
2019-04-26T04:18:38.834Z,16.90
2019-04-26T04:21:52.903Z,16.80
2019-04-26T04:24:51.724Z,16.80
2019-04-26T04:28:06.188Z,16.80
2019-04-26T04:31:20.704Z,16.70
2019-04-26T04:34:47.748Z,16.70
2019-04-26T04:38:04.286Z,16.60
2019-04-26T04:41:19.374Z,16.60
2019-04-26T04:45:20.847Z,16.60
2019-04-26T04:48:37.205Z,16.50
2019-04-26T04:52:21.481Z,16.50
2019-04-26T04:55:22.172Z,16.40
2019-04-26T04:58:17.424Z,16.40
2019-04-26T05:01:52.451Z,16.40
2019-04-26T05:05:22.581Z,16.40
2019-04-26T05:08:45.572Z,16.40
2019-04-26T05:12:17.750Z,16.30
2019-04-26T05:15:50.714Z,16.30
2019-04-26T05:19:26.824Z,16.30
2019-04-26T05:23:11.855Z,16.30
2019-04-26T05:27:19.914Z,16.30
2019-04-26T05:30:47.870Z,16.30
2019-04-26T05:34:06.422Z,16.30
2019-04-26T05:37:22.442Z,16.30
2019-04-26T05:40:47.028Z,16.30
2019-04-26T05:44:24.388Z,16.30
2019-04-26T05:47:45.542Z,16.40
2019-04-26T05:51:48.091Z,16.40
2019-04-26T05:55:41.227Z,16.50
2019-04-26T05:59:12.607Z,16.50
2019-04-26T06:02:52.701Z,16.60
2019-04-26T06:06:25.596Z,16.70
2019-04-26T06:10:09.925Z,16.80
2019-04-26T06:13:44.888Z,16.90
2019-04-26T06:17:25.143Z,17.00
2019-04-26T06:20:34.981Z,17.10
2019-04-26T06:23:59.975Z,17.20
2019-04-26T06:27:15.609Z,17.30
2019-04-26T06:30:45.839Z,17.40
2019-04-26T06:34:12.776Z,17.60
2019-04-26T06:37:36.963Z,17.70
2019-04-26T06:40:50.865Z,17.90
2019-04-26T06:43:45.136Z,18.00
2019-04-26T06:47:12.906Z,18.20
2019-04-26T06:50:43.355Z,18.30
2019-04-26T06:54:03.488Z,18.50
2019-04-26T06:57:45.996Z,18.70
2019-04-26T07:01:11.067Z,18.90
2019-04-26T07:04:40.420Z,19.00
2019-04-26T07:08:14.202Z,19.10
2019-04-26T07:12:28.149Z,19.30
2019-04-26T07:16:34.078Z,19.40
2019-04-26T07:20:07.784Z,19.50
2019-04-26T07:24:29.518Z,19.60
2019-04-26T07:28:20.864Z,19.60
2019-04-26T07:31:30.209Z,19.70
2019-04-26T07:35:21.131Z,19.70
2019-04-26T07:39:13.519Z,19.80
2019-04-26T08:01:43.305Z,20.50
2019-04-26T08:51:33.053Z,22.80
2019-04-26T10:39:48.825Z,26.00
2019-04-26T10:46:34.235Z,26.20
2019-04-26T11:05:30.706Z,26.70
2019-04-26T11:20:53.143Z,26.90
2019-04-26T14:05:28.536Z,27.40
2019-04-26T14:50:47.875Z,26.40
2019-04-26T14:53:38.412Z,26.30
2019-04-26T14:56:29.227Z,26.10
2019-04-26T14:59:18.785Z,26.00
2019-04-26T15:02:25.137Z,25.80
2019-04-26T15:05:50.191Z,25.80
2019-04-26T15:08:40.592Z,25.70
2019-04-26T15:11:32.279Z,25.50
2019-04-26T15:14:20.643Z,25.30
2019-04-26T15:17:07.737Z,25.20
2019-04-26T15:19:54.719Z,25.00
2019-04-26T15:22:42.859Z,24.90
2019-04-26T15:25:36.775Z,24.80
2019-04-26T15:28:29.699Z,24.60
2019-04-26T15:31:17.280Z,24.50
2019-04-26T15:34:05.699Z,24.40
2019-04-26T15:36:54.237Z,24.30
2019-04-26T15:40:06.581Z,24.20
2019-04-26T15:43:14.125Z,24.10
2019-04-26T15:46:18.157Z,24.00
2019-04-26T15:49:26.098Z,23.90
2019-04-26T15:52:11.998Z,23.80
2019-04-26T15:55:03.384Z,23.70
2019-04-26T15:57:47.735Z,23.70
2019-04-26T16:00:35.470Z,23.60
2019-04-26T16:03:22.798Z,23.50
2019-04-26T16:06:09.998Z,23.40
2019-04-26T16:08:56.871Z,23.40
2019-04-26T16:11:49.564Z,23.30
2019-04-26T16:14:36.495Z,23.20
2019-04-26T16:17:21.306Z,23.00
2019-04-26T16:20:08.516Z,22.90
2019-04-26T16:22:55.066Z,22.80
2019-04-26T16:25:42.820Z,22.60
2019-04-26T16:28:38.294Z,22.50
2019-04-26T16:31:42.085Z,22.30
2019-04-26T16:34:28.220Z,22.20
2019-04-26T16:37:21.697Z,22.20
2019-04-26T16:40:07.909Z,22.00
2019-04-26T16:42:57.078Z,21.90
2019-04-26T16:45:43.493Z,21.80
2019-04-26T16:48:30.383Z,21.70
2019-04-26T16:51:17.927Z,21.60
2019-04-26T16:54:08.554Z,21.60
2019-04-26T16:56:58.934Z,21.50
2019-04-26T16:59:47.675Z,21.30
2019-04-26T17:02:34.724Z,21.20
2019-04-26T17:05:35.561Z,21.10
2019-04-26T17:08:18.951Z,21.10
2019-04-26T17:11:03.095Z,21.00
2019-04-26T17:13:56.466Z,20.90
2019-04-26T17:16:40.195Z,20.80
2019-04-26T17:19:29.713Z,20.70
2019-04-26T17:22:44.668Z,20.70
2019-04-26T17:25:49.980Z,20.60
2019-04-26T17:28:37.966Z,20.50
2019-04-26T17:31:27.002Z,20.50
2019-04-26T17:34:22.578Z,20.30
2019-04-26T17:37:12.759Z,20.30
2019-04-26T17:39:57.683Z,20.20
2019-04-26T17:42:44.990Z,20.10
2019-04-26T17:45:31.680Z,20.00
2019-04-26T17:48:18.909Z,19.90
2019-04-26T17:51:11.831Z,19.80
2019-04-26T17:54:18.855Z,19.70
2019-04-26T17:56:43.882Z,19.60
2019-04-26T17:59:34.589Z,19.50
2019-04-26T18:02:40.356Z,19.40
2019-04-26T18:05:10.837Z,19.30
2019-04-26T18:08:30.446Z,19.10
2019-04-26T18:10:51.574Z,19.00
2019-04-26T18:13:38.447Z,18.90
2019-04-26T18:16:29.395Z,18.80
2019-04-26T18:19:51.921Z,18.70
2019-04-26T18:23:05.567Z,18.60
2019-04-26T18:25:53.104Z,18.60
2019-04-26T18:28:46.196Z,18.50
2019-04-26T18:31:30.155Z,18.40
2019-04-26T18:34:17.302Z,18.40
2019-04-26T18:37:07.472Z,18.30
2019-04-26T18:40:23.206Z,18.20
2019-04-26T18:43:17.630Z,18.10
2019-04-26T18:46:40.431Z,17.90
2019-04-26T18:49:38.630Z,17.80
2019-04-26T18:52:27.401Z,17.60
2019-04-26T18:55:30.128Z,17.40
2019-04-26T18:58:18.141Z,17.30
2019-04-26T19:01:07.754Z,17.10
2019-04-26T19:07:37.792Z,16.80
2019-04-26T19:10:25.841Z,16.70
2019-04-26T19:13:56.347Z,16.60
2019-04-26T21:58:14.045Z,14.70
2019-04-26T22:01:18.854Z,14.70
2019-04-26T22:05:21.521Z,14.70
2019-04-26T22:07:34.984Z,14.60
2019-04-26T22:10:33.266Z,14.70
2019-04-26T22:14:06.560Z,14.60
2019-04-26T22:17:24.066Z,14.60
2019-04-26T22:20:54.469Z,14.60
2019-04-26T22:23:54.694Z,14.50
2019-04-26T22:27:31.316Z,14.50
2019-04-26T22:30:28.365Z,14.50
2019-04-26T22:33:13.171Z,14.40
2019-04-26T22:36:00.954Z,14.40
2019-04-26T22:38:47.375Z,14.40
2019-04-26T22:41:34.513Z,14.40
2019-04-26T22:44:32.245Z,14.40
2019-04-26T22:47:51.224Z,14.40
2019-04-26T22:50:40.073Z,14.40
2019-04-26T22:53:27.526Z,14.40
2019-04-26T22:56:15.802Z,14.40
2019-04-26T22:59:07.715Z,14.40
2019-04-26T23:01:53.556Z,14.40
2019-04-26T23:04:40.355Z,14.40
